createdAt,value
2023-05-03T00:00:53.767Z,45.6
2023-05-03T00:06:12.043Z,45.3
2023-05-03T00:11:30.385Z,45.6
2023-05-03T00:16:49.117Z,43
2023-05-03T00:22:07.658Z,44.5
2023-05-03T00:27:28.843Z,45
2023-05-03T00:32:46.998Z,44.6
2023-05-03T00:38:05.326Z,45.2
2023-05-03T00:43:23.504Z,44.7
2023-05-03T00:48:41.916Z,44.5
2023-05-03T00:54:00.549Z,45.3
2023-05-03T00:59:18.550Z,45.4
2023-05-03T01:04:36.737Z,45
2023-05-03T01:09:39.258Z,44.7
2023-05-03T01:14:57.673Z,45.5
2023-05-03T01:20:16.033Z,45.1
2023-05-03T01:25:34.400Z,45.6
2023-05-03T01:30:52.824Z,45.6
2023-05-03T01:36:11.081Z,45.3
2023-05-03T01:41:29.231Z,45.8
2023-05-03T01:46:47.420Z,45.9
2023-05-03T01:52:05.777Z,45.4
2023-05-03T01:57:24.175Z,46
2023-05-03T02:02:48.034Z,45
2023-05-03T02:08:06.197Z,45.3
2023-05-03T02:13:24.348Z,44.8
2023-05-03T02:18:42.841Z,45.3
2023-05-03T02:24:00.765Z,45.8
2023-05-03T02:29:18.747Z,46.5
2023-05-03T02:34:36.925Z,46.3
2023-05-03T02:39:55.062Z,45.7
2023-05-03T02:45:13.445Z,45.4
2023-05-03T02:50:31.784Z,46.4
2023-05-03T02:55:50.266Z,46
2023-05-03T03:01:08.408Z,46.6
2023-05-03T03:06:26.917Z,46.7
2023-05-03T03:11:44.895Z,46.8
2023-05-03T03:17:03.528Z,46.8
2023-05-03T03:22:21.863Z,46.4
2023-05-03T03:27:40.469Z,46.4
2023-05-03T03:32:58.888Z,47
2023-05-03T03:38:17.181Z,46.4
2023-05-03T03:43:35.554Z,46.8
2023-05-03T03:48:53.748Z,47.1
2023-05-03T03:54:11.906Z,46.3
2023-05-03T03:59:30.328Z,47.3
2023-05-03T04:04:48.689Z,47.6
2023-05-03T04:10:07.207Z,47.4
2023-05-03T04:15:25.371Z,47.7
2023-05-03T04:20:43.783Z,48.1
2023-05-03T04:26:05.870Z,47.1
2023-05-03T04:31:25.358Z,47.7
2023-05-03T04:36:43.837Z,47.3
2023-05-03T04:42:02.343Z,47.3
2023-05-03T04:47:20.656Z,47.7
2023-05-03T04:52:38.838Z,45.6
2023-05-03T04:57:57.473Z,46.2
2023-05-03T05:03:16.003Z,46.9
2023-05-03T05:08:36.957Z,46.7
2023-05-03T05:13:55.359Z,47
2023-05-03T05:19:13.557Z,46
2023-05-03T05:24:32.036Z,46.5
2023-05-03T05:29:50.392Z,47.1
2023-05-03T05:35:08.410Z,46.9
2023-05-03T05:40:11.097Z,47.2
2023-05-03T05:45:29.140Z,46.4
2023-05-03T05:50:47.317Z,47.1
2023-05-03T05:56:05.905Z,46.7
2023-05-03T06:01:24.329Z,46.2
2023-05-03T06:06:42.838Z,46
2023-05-03T06:12:01.452Z,45.7
2023-05-03T06:17:20.100Z,45.8
2023-05-03T06:22:38.681Z,46
2023-05-03T06:27:57.190Z,45.3
2023-05-03T06:33:15.633Z,45.4
2023-05-03T06:38:34.198Z,46.1
2023-05-03T06:43:52.985Z,45.8
2023-05-03T06:49:11.591Z,46
2023-05-03T06:54:30.142Z,46
2023-05-03T06:59:48.463Z,46
2023-05-03T07:05:06.782Z,44.8
2023-05-03T07:10:25.175Z,45
2023-05-03T07:15:43.367Z,45.7
2023-05-03T07:21:01.799Z,44.9
2023-05-03T07:26:20.120Z,45.3
2023-05-03T07:31:38.147Z,45.5
2023-05-03T07:36:56.607Z,44.6
2023-05-03T07:42:15.066Z,44.5
2023-05-03T07:47:33.485Z,44.6
2023-05-03T07:52:51.945Z,44.6
2023-05-03T07:58:10.252Z,45.1
2023-05-03T08:03:29.039Z,45.6
2023-05-03T08:08:47.291Z,44.8
2023-05-03T08:14:05.330Z,45.3
2023-05-03T08:19:23.963Z,45.4
2023-05-03T08:24:42.757Z,44.7
2023-05-03T08:30:01.650Z,44.7
2023-05-03T08:35:20.242Z,45.4
2023-05-03T08:40:38.631Z,45.5
2023-05-03T08:45:56.817Z,45.2
2023-05-03T08:51:15.075Z,45.1
2023-05-03T08:56:33.439Z,45
2023-05-03T09:01:55.433Z,45.7
2023-05-03T09:07:13.959Z,45.2
2023-05-03T09:12:31.966Z,45.5
2023-05-03T09:17:50.562Z,45.1
2023-05-03T09:23:12.098Z,45.9
2023-05-03T09:28:30.222Z,45.9
2023-05-03T09:33:48.819Z,45.6
2023-05-03T09:39:07.186Z,46
2023-05-03T09:44:25.685Z,46
2023-05-03T09:49:43.886Z,45.2
2023-05-03T09:55:06.042Z,46
2023-05-03T10:00:31.378Z,45.8
2023-05-03T10:05:49.951Z,45.2
2023-05-03T10:11:08.290Z,45.3
2023-05-03T10:16:26.862Z,45.8
2023-05-03T10:21:45.504Z,45.7
2023-05-03T10:27:04.157Z,45.3
2023-05-03T10:32:22.832Z,46
2023-05-03T10:37:41.144Z,45.4
2023-05-03T10:42:59.488Z,46
2023-05-03T10:48:17.911Z,45.2
2023-05-03T10:53:36.149Z,46.1
2023-05-03T10:58:54.306Z,45.9
2023-05-03T11:04:12.580Z,45.7
2023-05-03T11:09:31.172Z,45.3
2023-05-03T11:14:49.515Z,46.1
2023-05-03T11:20:07.905Z,45.3
2023-05-03T11:25:26.505Z,45.2
2023-05-03T11:30:45.344Z,46.2
2023-05-03T11:36:03.906Z,45.7
2023-05-03T11:41:22.112Z,46
2023-05-03T11:46:40.999Z,46.1
2023-05-03T11:52:02.606Z,45.5
2023-05-03T11:57:21.027Z,45.4
2023-05-03T12:02:44.304Z,45.4
2023-05-03T12:08:03.892Z,46.1
2023-05-03T12:13:28.475Z,45.4
2023-05-03T12:18:49.426Z,46.2
2023-05-03T12:24:11.189Z,45.4
2023-05-03T12:29:32.726Z,37.8
2023-05-03T12:35:04.046Z,37.6
2023-05-03T12:40:35.620Z,36.8
2023-05-03T12:46:35.005Z,38
2023-05-03T12:52:38.283Z,38.1
2023-05-03T13:15:40.436Z,41.2
2023-05-03T13:20:58.684Z,41.6
2023-05-03T13:26:17.073Z,41.3
2023-05-03T13:31:35.657Z,42.4
2023-05-03T13:36:54.220Z,42.1
2023-05-03T13:42:12.451Z,42.9
2023-05-03T13:48:19.408Z,43.2
2023-05-03T13:53:38.187Z,42.9
2023-05-03T13:58:56.598Z,43.4
2023-05-03T14:04:15.258Z,43
2023-05-03T14:09:34.336Z,43.1
2023-05-03T14:14:52.953Z,44
2023-05-03T14:20:11.231Z,43.1
2023-05-03T14:25:29.952Z,43.8
2023-05-03T14:30:48.505Z,43.7
2023-05-03T14:36:06.893Z,44.5
2023-05-03T14:41:25.507Z,44.8
2023-05-03T14:46:44.145Z,44
2023-05-03T14:52:02.746Z,44
2023-05-03T14:57:21.427Z,44.7
2023-05-03T15:02:40.117Z,44.4
2023-05-03T15:07:58.894Z,45.2
2023-05-03T15:13:18.275Z,45.2
2023-05-03T15:18:36.335Z,45.4
2023-05-03T15:23:54.728Z,45.1
2023-05-03T15:29:13.080Z,45.3
2023-05-03T15:34:31.544Z,45.3
2023-05-03T15:39:49.750Z,45.9
2023-05-03T15:45:07.940Z,47.7
2023-05-03T15:50:26.280Z,46.9
2023-05-03T15:55:47.498Z,46.9
2023-05-03T16:01:06.041Z,47.6
2023-05-03T16:06:24.097Z,47.9
2023-05-03T16:11:42.511Z,44.8
2023-05-03T16:17:04.005Z,46.3
2023-05-03T16:22:22.308Z,45.9
2023-05-03T16:27:40.773Z,46.2
2023-05-03T16:32:59.415Z,45.9
2023-05-03T16:38:17.658Z,46.3
2023-05-03T16:43:36.462Z,46.9
2023-05-03T16:48:54.867Z,46.2
2023-05-03T16:54:13.473Z,46.1
2023-05-03T16:59:32.034Z,46.2
2023-05-03T17:04:50.618Z,46.6
2023-05-03T17:10:09.205Z,46.5
2023-05-03T17:15:27.349Z,45.8
2023-05-03T17:20:46.053Z,46
2023-05-03T17:26:05.014Z,45.8
2023-05-03T17:31:23.373Z,46.6
2023-05-03T17:36:41.361Z,46.7
2023-05-03T17:41:59.658Z,47.9
2023-05-03T17:47:17.810Z,48.4
2023-05-03T17:52:36.595Z,49.1
2023-05-03T17:57:55.065Z,48
2023-05-03T18:03:13.719Z,49.7
2023-05-03T18:08:32.438Z,49.3
2023-05-03T18:13:50.844Z,49.3
2023-05-03T18:19:09.115Z,48.2
2023-05-03T18:24:27.941Z,49.2
2023-05-03T18:29:46.397Z,49.4
2023-05-03T18:35:04.479Z,49
2023-05-03T18:40:22.660Z,48.9
2023-05-03T18:45:41.847Z,49.1
2023-05-03T18:51:00.635Z,48.6
2023-05-03T18:56:19.191Z,49
2023-05-03T19:01:37.695Z,48.8
2023-05-03T19:06:56.767Z,49.3
2023-05-03T19:12:00.866Z,49
2023-05-03T19:17:19.495Z,48.2
2023-05-03T19:22:37.699Z,48.4
2023-05-03T19:27:56.849Z,48.5
2023-05-03T19:33:15.176Z,48.6
2023-05-03T19:38:33.183Z,48.5
2023-05-03T19:43:51.647Z,48.1
2023-05-03T19:49:10.100Z,49.1
2023-05-03T19:54:28.526Z,48.4
2023-05-03T19:59:47.347Z,49
2023-05-03T20:05:05.520Z,48.4
2023-05-03T20:10:23.906Z,48.6
2023-05-03T20:15:42.369Z,48.7
2023-05-03T20:21:00.499Z,48.4
2023-05-03T20:26:18.810Z,49.1
2023-05-03T20:31:37.086Z,48.4
2023-05-03T20:36:55.195Z,48.7
2023-05-03T20:42:13.868Z,48.6
2023-05-03T20:47:32.245Z,49.3
2023-05-03T20:52:50.751Z,48.8
2023-05-03T20:58:08.996Z,48.4
2023-05-03T21:03:28.074Z,49.3
2023-05-03T21:08:46.319Z,49.2
2023-05-03T21:14:04.459Z,49.1
2023-05-03T21:19:22.596Z,48.8
2023-05-03T21:24:40.779Z,49.3
2023-05-03T21:29:59.009Z,49.2
2023-05-03T21:35:17.434Z,49.4
2023-05-03T21:40:35.804Z,49.4
2023-05-03T21:45:57.248Z,49.1
2023-05-03T21:51:15.526Z,48.6
2023-05-03T21:56:33.910Z,48.8
2023-05-03T22:01:52.424Z,49
2023-05-03T22:07:10.756Z,48.6
2023-05-03T22:12:29.159Z,48.7
2023-05-03T22:17:47.713Z,48.8
2023-05-03T22:23:05.997Z,48.5
2023-05-03T22:28:24.157Z,49.3
2023-05-03T22:33:42.343Z,49.2
2023-05-03T22:39:00.513Z,48.4
2023-05-03T22:44:18.938Z,49.2
2023-05-03T22:49:37.325Z,48.6
2023-05-03T22:54:55.511Z,48.7
2023-05-03T23:00:13.919Z,49
2023-05-03T23:05:32.104Z,49.8
2023-05-03T23:10:50.289Z,49.8
2023-05-03T23:16:08.994Z,49.7
2023-05-03T23:21:27.346Z,49
2023-05-03T23:26:46.718Z,49.1
2023-05-03T23:32:06.176Z,49.2
2023-05-03T23:37:25.031Z,49.5
2023-05-03T23:42:43.373Z,50
2023-05-03T23:48:01.866Z,49
2023-05-03T23:53:20.149Z,49.7
2023-05-03T23:58:38.559Z,49.6
